createdAt,value
2023-05-20T00:01:29.755Z,12.58
2023-05-20T00:03:57.691Z,12.79
2023-05-20T00:06:27.094Z,12.51
2023-05-20T00:08:55.729Z,12.52
2023-05-20T00:11:23.863Z,12.55
2023-05-20T00:13:51.705Z,12.57
2023-05-20T00:16:19.517Z,12.62
2023-05-20T00:18:47.305Z,12.63
2023-05-20T00:21:15.072Z,12.70
2023-05-20T00:23:44.289Z,12.75
2023-05-20T00:26:12.026Z,12.68
2023-05-20T00:28:39.707Z,12.77
2023-05-20T00:31:07.400Z,12.76
2023-05-20T00:33:36.403Z,12.83
2023-05-20T00:36:04.166Z,12.77
2023-05-20T00:38:31.935Z,12.90
2023-05-20T00:41:01.266Z,13.01
2023-05-20T00:43:29.057Z,12.73
2023-05-20T00:45:56.803Z,12.89
2023-05-20T00:48:24.562Z,12.76
2023-05-20T00:50:52.912Z,12.83
2023-05-20T00:53:21.264Z,12.82
2023-05-20T00:55:49.039Z,12.90
2023-05-20T00:58:18.168Z,12.95
2023-05-20T01:00:46.281Z,12.96
2023-05-20T01:03:14.331Z,12.87
2023-05-20T01:05:42.558Z,12.82
2023-05-20T01:08:10.479Z,12.91
2023-05-20T01:10:40.592Z,12.89
2023-05-20T01:13:10.904Z,12.92
2023-05-20T01:15:41.714Z,13.04
2023-05-20T01:18:10.714Z,12.94
2023-05-20T01:20:39.390Z,12.91
2023-05-20T01:23:08.687Z,12.80
2023-05-20T01:25:36.537Z,12.86
2023-05-20T01:28:04.612Z,12.91
2023-05-20T01:30:38.351Z,12.87
2023-05-20T01:33:08.343Z,12.72
2023-05-20T01:35:36.641Z,12.70
2023-05-20T01:38:06.337Z,12.78
2023-05-20T01:40:35.879Z,12.76
2023-05-20T01:43:04.358Z,12.75
2023-05-20T01:45:32.683Z,12.66
2023-05-20T01:48:01.778Z,12.73
2023-05-20T01:50:29.645Z,12.72
2023-05-20T01:52:57.476Z,12.66
2023-05-20T01:55:25.183Z,12.65
2023-05-20T01:57:54.240Z,12.68
2023-05-20T02:00:22.204Z,12.59
2023-05-20T02:02:50.027Z,12.60
2023-05-20T02:05:17.944Z,12.59
2023-05-20T02:07:45.815Z,12.46
2023-05-20T02:10:13.810Z,12.49
2023-05-20T02:12:41.630Z,12.69
2023-05-20T02:15:11.334Z,12.72
2023-05-20T02:17:39.755Z,12.65
2023-05-20T02:20:09.234Z,12.54
2023-05-20T02:22:36.982Z,12.50
2023-05-20T02:25:05.098Z,12.57
2023-05-20T02:27:32.805Z,12.55
2023-05-20T02:30:01.420Z,12.50
2023-05-20T02:32:30.530Z,12.55
2023-05-20T02:34:58.261Z,12.47
2023-05-20T02:37:26.387Z,12.52
2023-05-20T02:39:54.066Z,12.22
2023-05-20T02:42:21.822Z,12.43
2023-05-20T02:44:49.629Z,12.29
2023-05-20T02:47:17.352Z,12.24
2023-05-20T02:49:46.784Z,12.21
2023-05-20T02:52:16.141Z,12.01
2023-05-20T02:54:43.894Z,12.08
2023-05-20T02:57:12.020Z,12.07
2023-05-20T02:59:39.764Z,11.97
2023-05-20T03:02:07.482Z,11.93
2023-05-20T03:04:38.507Z,11.73
2023-05-20T03:07:09.050Z,11.79
2023-05-20T03:09:36.838Z,11.88
2023-05-20T03:12:04.816Z,11.85
2023-05-20T03:14:32.488Z,11.82
2023-05-20T03:17:00.241Z,11.79
2023-05-20T03:19:28.134Z,11.74
2023-05-20T03:21:55.999Z,11.72
2023-05-20T03:24:25.062Z,11.66
2023-05-20T03:26:52.816Z,11.80
2023-05-20T03:29:21.288Z,11.67
2023-05-20T03:31:49.082Z,11.66
2023-05-20T03:34:16.825Z,11.57
2023-05-20T03:36:44.578Z,11.65
2023-05-20T03:39:12.271Z,11.58
2023-05-20T03:41:41.357Z,11.52
2023-05-20T03:44:09.048Z,11.55
2023-05-20T03:46:37.181Z,11.56
2023-05-20T03:49:05.876Z,11.47
2023-05-20T03:51:33.566Z,11.54
2023-05-20T03:54:01.324Z,11.50
2023-05-20T03:56:29.113Z,11.59
2023-05-20T03:58:58.258Z,11.61
2023-05-20T04:01:27.759Z,11.42
2023-05-20T04:03:55.583Z,11.65
2023-05-20T04:06:23.524Z,11.45
2023-05-20T04:08:52.896Z,11.39
2023-05-20T04:11:21.439Z,11.39
2023-05-20T04:13:49.141Z,11.43
2023-05-20T04:16:18.347Z,11.55
2023-05-20T04:18:46.250Z,11.50
2023-05-20T04:21:14.109Z,11.65
2023-05-20T04:23:42.020Z,11.59
2023-05-20T04:26:09.739Z,11.77
2023-05-20T04:28:37.820Z,11.74
2023-05-20T04:31:05.933Z,11.78
2023-05-20T04:33:38.690Z,11.88
2023-05-20T04:36:08.671Z,11.75
2023-05-20T04:38:36.382Z,11.75
2023-05-20T04:41:04.113Z,11.98
2023-05-20T04:43:31.830Z,11.86
2023-05-20T04:46:01.421Z,11.92
2023-05-20T04:48:29.244Z,11.88
2023-05-20T04:50:58.377Z,12.03
2023-05-20T04:53:26.187Z,11.85
2023-05-20T04:55:57.003Z,11.89
2023-05-20T04:58:25.373Z,12.09
2023-05-20T05:00:54.018Z,12.09
2023-05-20T05:03:21.752Z,12.51
2023-05-20T05:05:49.560Z,13.15
2023-05-20T05:08:18.653Z,13.84
2023-05-20T05:10:46.618Z,14.27
2023-05-20T05:13:14.394Z,15.06
2023-05-20T05:15:42.239Z,15.43
2023-05-20T05:18:10.196Z,14.73
2023-05-20T05:20:38.088Z,15.26
2023-05-20T05:23:05.813Z,14.54
2023-05-20T05:25:35.024Z,14.71
2023-05-20T05:28:02.990Z,15.37
2023-05-20T05:30:30.723Z,16.34
2023-05-20T05:33:45.477Z,15.69
2023-05-20T05:36:13.165Z,15.62
2023-05-20T05:38:40.967Z,15.58
2023-05-20T05:41:08.695Z,14.74
2023-05-20T05:43:36.607Z,14.41
2023-05-20T05:46:05.153Z,14.83
2023-05-20T05:48:33.300Z,14.85
2023-05-20T05:51:02.790Z,15.06
2023-05-20T05:53:30.539Z,15.03
2023-05-20T05:55:58.274Z,14.96
2023-05-20T05:58:26.004Z,15.28
2023-05-20T06:00:54.807Z,14.57
2023-05-20T06:03:22.991Z,14.66
2023-05-20T06:05:51.011Z,15.63
2023-05-20T06:08:20.077Z,14.84
2023-05-20T06:10:50.192Z,14.09
2023-05-20T06:13:18.095Z,14.00
2023-05-20T06:15:46.481Z,14.67
2023-05-20T06:18:14.288Z,14.37
2023-05-20T06:20:42.055Z,14.27
2023-05-20T06:23:09.807Z,14.70
2023-05-20T06:25:38.873Z,14.55
2023-05-20T06:28:06.597Z,14.58
2023-05-20T06:30:34.298Z,14.25
2023-05-20T06:33:02.057Z,14.69
2023-05-20T06:35:29.766Z,14.87
2023-05-20T06:37:57.566Z,15.13
2023-05-20T06:40:27.207Z,15.32
2023-05-20T06:42:56.384Z,15.06
2023-05-20T06:45:24.091Z,14.47
2023-05-20T06:47:54.149Z,14.08
2023-05-20T06:50:22.111Z,14.32
2023-05-20T06:52:49.839Z,14.38
2023-05-20T06:55:17.721Z,14.56
2023-05-20T06:57:45.735Z,14.36
2023-05-20T07:00:15.644Z,14.63
2023-05-20T07:02:43.531Z,14.47
2023-05-20T07:05:11.838Z,14.75
2023-05-20T07:07:39.919Z,14.55
2023-05-20T07:10:09.155Z,14.98
2023-05-20T07:12:37.197Z,15.01
2023-05-20T07:15:05.242Z,15.15
2023-05-20T07:17:34.335Z,14.89
2023-05-20T07:20:02.156Z,15.06
2023-05-20T07:22:29.875Z,15.06
2023-05-20T07:24:57.669Z,14.93
2023-05-20T07:27:25.361Z,15.11
2023-05-20T07:29:53.530Z,15.30
2023-05-20T07:32:21.726Z,15.53
2023-05-20T07:34:50.805Z,15.40
2023-05-20T07:37:18.506Z,15.33
2023-05-20T07:39:46.274Z,15.55
2023-05-20T07:42:14.045Z,15.77
2023-05-20T07:44:41.906Z,15.54
2023-05-20T07:47:09.608Z,15.99
2023-05-20T07:49:37.290Z,16.21
2023-05-20T07:52:07.067Z,16.07
2023-05-20T07:54:36.594Z,15.88
2023-05-20T07:57:04.325Z,15.78
2023-05-20T07:59:32.008Z,16.02
2023-05-20T08:01:59.851Z,16.17
2023-05-20T08:04:28.158Z,15.92
2023-05-20T08:06:56.186Z,15.69
2023-05-20T08:09:25.344Z,15.94
2023-05-20T08:11:53.039Z,16.03
2023-05-20T08:14:20.920Z,16.21
2023-05-20T08:16:48.739Z,16.31
2023-05-20T08:19:16.596Z,16.66
2023-05-20T08:21:44.593Z,16.79
2023-05-20T08:24:12.308Z,16.87
2023-05-20T08:26:41.662Z,16.99
2023-05-20T08:29:09.587Z,16.57
2023-05-20T08:31:37.415Z,16.82
2023-05-20T08:34:05.150Z,16.29
2023-05-20T08:36:33.001Z,16.19
2023-05-20T08:39:00.682Z,16.36
2023-05-20T08:41:28.424Z,16.43
2023-05-20T08:43:58.644Z,16.76
2023-05-20T08:46:26.617Z,17.06
2023-05-20T08:48:54.340Z,17.12
2023-05-20T08:51:23.854Z,16.97
2023-05-20T08:53:52.231Z,17.43
2023-05-20T08:56:20.356Z,17.43
2023-05-20T08:58:48.083Z,17.33
2023-05-20T09:01:18.037Z,17.37
2023-05-20T09:03:45.768Z,17.02
2023-05-20T09:06:20.086Z,16.95
2023-05-20T09:08:49.639Z,17.07
2023-05-20T09:11:17.398Z,16.99
2023-05-20T09:13:45.370Z,16.87
2023-05-20T09:16:13.596Z,16.73
2023-05-20T09:18:43.532Z,17.27
2023-05-20T09:21:11.705Z,17.70
2023-05-20T09:23:39.576Z,17.54
2023-05-20T09:26:07.712Z,17.32
2023-05-20T09:28:38.257Z,17.46
2023-05-20T09:31:07.194Z,17.48
2023-05-20T09:33:35.778Z,17.41
2023-05-20T09:36:07.033Z,17.99
2023-05-20T09:38:37.928Z,17.76
2023-05-20T09:41:09.617Z,17.78
2023-05-20T09:43:37.460Z,17.72
2023-05-20T09:46:05.785Z,17.44
2023-05-20T09:48:34.455Z,17.51
2023-05-20T09:51:02.866Z,17.42
2023-05-20T09:53:32.337Z,17.61
2023-05-20T09:56:00.395Z,17.57
2023-05-20T09:58:28.367Z,17.39
2023-05-20T10:00:56.141Z,17.82
2023-05-20T10:03:25.255Z,17.92
2023-05-20T10:06:03.036Z,18.00
2023-05-20T10:08:42.704Z,18.05
2023-05-20T10:11:16.753Z,18.59
2023-05-20T10:13:54.750Z,18.34
2023-05-20T10:16:31.158Z,18.25
2023-05-20T10:19:05.059Z,18.70
2023-05-20T10:21:33.812Z,19.25
2023-05-20T10:24:09.174Z,18.90
2023-05-20T10:26:38.272Z,18.97
2023-05-20T10:29:16.580Z,19.63
2023-05-20T10:31:51.273Z,20.02
2023-05-20T10:34:20.496Z,19.65
2023-05-20T10:36:58.290Z,18.84
2023-05-20T10:39:29.656Z,18.99
2023-05-20T10:42:08.310Z,18.86
2023-05-20T10:44:43.509Z,18.51
2023-05-20T10:49:46.068Z,18.64
2023-05-20T10:52:14.394Z,18.86
2023-05-20T10:54:50.151Z,19.09
2023-05-20T10:57:20.032Z,18.77
2023-05-20T10:59:48.484Z,18.62
2023-05-20T11:02:17.518Z,18.88
2023-05-20T11:04:45.797Z,19.24
2023-05-20T11:07:13.617Z,19.27
2023-05-20T11:09:52.046Z,19.33
2023-05-20T11:12:19.881Z,18.90
2023-05-20T11:14:49.413Z,18.60
2023-05-20T11:17:17.407Z,18.84
2023-05-20T11:19:45.116Z,18.86
2023-05-20T11:22:13.007Z,19.17
2023-05-20T11:24:40.847Z,18.52
2023-05-20T11:27:10.318Z,18.72
2023-05-20T11:29:38.296Z,18.91
2023-05-20T11:32:06.829Z,19.09
2023-05-20T11:34:35.317Z,19.32
2023-05-20T11:37:03.085Z,19.23
2023-05-20T11:39:31.459Z,18.96
2023-05-20T11:41:59.558Z,19.11
2023-05-20T11:44:28.716Z,18.72
2023-05-20T11:47:01.603Z,18.91
2023-05-20T11:49:30.698Z,19.28
2023-05-20T11:51:58.505Z,19.79
2023-05-20T11:54:26.427Z,19.65
2023-05-20T11:56:55.680Z,19.10
2023-05-20T11:59:25.431Z,19.09
2023-05-20T12:01:54.667Z,18.82
2023-05-20T12:04:22.578Z,19.73
2023-05-20T12:06:50.354Z,19.73
2023-05-20T12:09:18.055Z,19.65
2023-05-20T12:11:45.787Z,19.74
2023-05-20T12:14:13.567Z,19.73
2023-05-20T12:16:41.359Z,19.71
2023-05-20T12:19:10.499Z,19.90
2023-05-20T12:21:38.281Z,19.79
2023-05-20T12:24:08.465Z,20.32
2023-05-20T12:26:36.505Z,20.80
2023-05-20T12:29:04.198Z,20.94
2023-05-20T12:31:34.694Z,21.15
2023-05-20T12:34:02.905Z,21.06
2023-05-20T12:36:32.374Z,21.27
2023-05-20T12:39:00.145Z,21.69
2023-05-20T12:41:27.880Z,21.22
2023-05-20T12:43:55.623Z,21.09
2023-05-20T12:46:23.553Z,21.26
2023-05-20T12:48:51.355Z,21.09
2023-05-20T12:51:20.231Z,20.34
2023-05-20T12:53:49.444Z,20.24
2023-05-20T12:56:17.696Z,20.34
2023-05-20T12:58:45.400Z,20.41
2023-05-20T13:01:13.158Z,20.79
2023-05-20T13:03:41.462Z,20.77
2023-05-20T13:06:09.234Z,20.69
2023-05-20T13:08:36.910Z,20.29
2023-05-20T13:11:05.996Z,20.21
2023-05-20T13:13:33.720Z,20.67
2023-05-20T13:16:01.449Z,20.93
2023-05-20T13:18:29.198Z,21.14
2023-05-20T13:20:57.073Z,20.85
2023-05-20T13:23:24.800Z,21.18
2023-05-20T13:25:52.852Z,20.78
2023-05-20T13:28:22.438Z,19.92
2023-05-20T13:30:50.175Z,19.67
2023-05-20T13:33:18.106Z,19.85
2023-05-20T13:35:45.823Z,20.83
2023-05-20T13:38:13.568Z,20.65
2023-05-20T13:40:41.299Z,20.61
2023-05-20T13:43:09.059Z,20.49
2023-05-20T13:45:38.120Z,20.57
2023-05-20T13:48:06.689Z,20.53
2023-05-20T13:50:34.641Z,21.25
2023-05-20T13:53:02.921Z,21.23
2023-05-20T13:55:31.593Z,21.58
2023-05-20T13:57:59.341Z,21.38
2023-05-20T14:00:27.079Z,21.78
2023-05-20T14:02:56.295Z,21.55
2023-05-20T14:05:24.173Z,21.19
2023-05-20T14:07:51.947Z,20.63
2023-05-20T14:10:19.738Z,20.56
2023-05-20T14:12:48.248Z,20.80
2023-05-20T14:15:16.384Z,21.14
2023-05-20T14:17:44.175Z,20.85
2023-05-20T14:20:13.738Z,21.40
2023-05-20T14:22:41.456Z,21.61
2023-05-20T14:25:09.694Z,21.23
2023-05-20T14:27:37.845Z,20.86
2023-05-20T14:30:06.810Z,21.78
2023-05-20T14:32:34.724Z,21.26
2023-05-20T14:35:02.486Z,21.10
2023-05-20T14:37:31.638Z,20.04
2023-05-20T14:39:59.382Z,20.22
2023-05-20T14:42:27.266Z,19.71
2023-05-20T14:44:54.953Z,19.35
2023-05-20T14:47:22.827Z,19.17
2023-05-20T14:49:51.185Z,19.30
2023-05-20T14:52:19.132Z,19.66
2023-05-20T14:54:48.268Z,19.76
2023-05-20T14:57:16.813Z,19.95
2023-05-20T14:59:44.695Z,20.07
2023-05-20T15:02:15.450Z,20.44
2023-05-20T15:04:46.301Z,20.04
2023-05-20T15:07:14.188Z,20.77
2023-05-20T15:09:41.947Z,20.68
2023-05-20T15:12:11.923Z,20.54
2023-05-20T15:14:39.658Z,19.51
2023-05-20T15:17:07.686Z,20.27
2023-05-20T15:19:36.951Z,20.27
2023-05-20T15:22:05.764Z,20.03
2023-05-20T15:24:33.541Z,19.15
2023-05-20T15:27:01.237Z,19.02
2023-05-20T15:29:30.373Z,18.95
2023-05-20T15:31:58.115Z,18.96
2023-05-20T15:34:25.805Z,18.95
2023-05-20T15:36:53.785Z,19.28
2023-05-20T15:39:21.488Z,18.94
2023-05-20T15:41:49.999Z,18.76
2023-05-20T15:44:17.761Z,19.27
2023-05-20T15:46:47.287Z,19.88
2023-05-20T15:49:15.118Z,20.12
2023-05-20T15:51:52.376Z,19.98
2023-05-20T15:54:30.094Z,20.78
2023-05-20T15:56:57.940Z,20.63
2023-05-20T15:59:25.870Z,19.21
2023-05-20T16:01:55.025Z,19.03
2023-05-20T16:04:23.098Z,18.53
2023-05-20T16:06:50.963Z,18.87
2023-05-20T16:09:18.831Z,19.36
2023-05-20T16:11:47.818Z,19.64
2023-05-20T16:14:15.604Z,19.40
2023-05-20T16:16:43.429Z,18.97
2023-05-20T16:19:12.626Z,18.28
2023-05-20T16:21:40.390Z,18.54
2023-05-20T16:24:08.113Z,18.60
2023-05-20T16:26:35.810Z,18.65
2023-05-20T16:29:03.510Z,18.57
2023-05-20T16:31:31.261Z,18.91
2023-05-20T16:33:58.977Z,18.99
2023-05-20T16:36:28.155Z,19.51
2023-05-20T16:38:56.011Z,19.10
2023-05-20T16:41:23.841Z,18.95
2023-05-20T16:43:51.585Z,18.71
2023-05-20T16:46:19.335Z,18.83
2023-05-20T16:48:47.169Z,18.78
2023-05-20T16:51:14.901Z,18.57
2023-05-20T16:53:43.981Z,18.81
2023-05-20T16:56:11.679Z,19.10
2023-05-20T16:58:39.435Z,19.29
2023-05-20T17:01:08.243Z,18.98
2023-05-20T17:03:36.369Z,18.75
2023-05-20T17:06:04.132Z,18.60
2023-05-20T17:08:31.965Z,18.68
2023-05-20T17:11:01.499Z,18.68
2023-05-20T17:13:29.195Z,18.69
2023-05-20T17:15:56.952Z,18.44
2023-05-20T17:18:24.716Z,18.48
2023-05-20T17:20:52.403Z,18.37
2023-05-20T17:23:20.152Z,18.67
2023-05-20T17:25:47.937Z,18.72
2023-05-20T17:28:17.021Z,18.64
2023-05-20T17:30:44.719Z,18.57
2023-05-20T17:33:12.516Z,18.83
2023-05-20T17:35:40.755Z,19.11
2023-05-20T17:38:08.530Z,18.85
2023-05-20T17:40:36.550Z,18.44
2023-05-20T17:43:04.502Z,18.53
2023-05-20T17:45:33.621Z,18.44
2023-05-20T17:48:02.485Z,18.82
2023-05-20T17:50:30.362Z,18.56
2023-05-20T17:52:58.058Z,18.53
2023-05-20T17:55:25.778Z,18.33
2023-05-20T17:57:53.538Z,18.43
2023-05-20T18:00:21.672Z,18.30
2023-05-20T18:02:51.731Z,18.21
2023-05-20T18:05:19.529Z,18.13
2023-05-20T18:07:47.380Z,18.29
2023-05-20T18:10:15.260Z,18.25
2023-05-20T18:12:45.282Z,18.37
2023-05-20T18:15:14.238Z,18.24
2023-05-20T18:17:41.979Z,18.43
2023-05-20T18:20:12.682Z,18.06
2023-05-20T18:22:45.021Z,18.01
2023-05-20T18:25:13.023Z,18.35
2023-05-20T18:27:41.070Z,18.03
2023-05-20T18:30:09.834Z,17.92
2023-05-20T18:32:38.869Z,17.51
2023-05-20T18:35:07.658Z,17.61
2023-05-20T18:37:36.704Z,17.54
2023-05-20T18:40:06.475Z,17.50
2023-05-20T18:42:34.240Z,17.44
2023-05-20T18:45:01.968Z,17.62
2023-05-20T18:47:29.821Z,17.77
2023-05-20T18:49:57.574Z,17.61
2023-05-20T18:52:25.445Z,17.54
2023-05-20T18:54:54.522Z,17.47
2023-05-20T18:57:22.536Z,17.42
2023-05-20T18:59:50.514Z,17.31
2023-05-20T19:02:18.501Z,17.27
2023-05-20T19:04:46.231Z,16.97
2023-05-20T19:07:13.950Z,17.00
2023-05-20T19:09:41.665Z,16.92
2023-05-20T19:12:10.967Z,16.93
2023-05-20T19:14:38.689Z,17.10
2023-05-20T19:17:07.125Z,16.99
2023-05-20T19:19:34.916Z,16.90
2023-05-20T19:22:02.640Z,16.98
2023-05-20T19:24:32.000Z,17.04
2023-05-20T19:27:00.131Z,16.95
2023-05-20T19:29:29.305Z,17.01
2023-05-20T19:31:57.538Z,17.01
2023-05-20T19:34:25.499Z,16.89
2023-05-20T19:36:53.184Z,16.81
2023-05-20T19:39:21.971Z,16.87
2023-05-20T19:41:49.789Z,16.82
2023-05-20T19:44:18.914Z,16.92
2023-05-20T19:46:48.227Z,17.07
2023-05-20T19:49:15.967Z,16.95
2023-05-20T19:51:44.044Z,16.99
2023-05-20T19:54:11.817Z,16.87
2023-05-20T19:56:39.659Z,16.81
2023-05-20T19:59:07.403Z,16.65
2023-05-20T20:01:35.164Z,16.59
2023-05-20T20:04:04.377Z,16.52
2023-05-20T20:06:32.426Z,16.52
2023-05-20T20:09:00.163Z,16.67
2023-05-20T20:11:27.886Z,16.41
2023-05-20T20:13:55.597Z,16.56
2023-05-20T20:16:23.403Z,16.45
2023-05-20T20:18:51.230Z,16.55
2023-05-20T20:21:20.391Z,16.59
2023-05-20T20:23:48.126Z,16.71
2023-05-20T20:26:16.236Z,16.69
2023-05-20T20:28:43.956Z,16.66
2023-05-20T20:31:11.744Z,16.49
2023-05-20T20:33:39.471Z,16.23
2023-05-20T20:36:08.856Z,16.36
2023-05-20T20:38:38.677Z,16.33
2023-05-20T20:41:09.455Z,16.20
2023-05-20T20:43:38.074Z,16.13
2023-05-20T20:46:06.345Z,16.05
2023-05-20T20:48:34.540Z,16.07
2023-05-20T20:51:02.262Z,15.99
2023-05-20T20:53:30.025Z,16.20
2023-05-20T20:55:59.195Z,16.22
2023-05-20T20:58:27.054Z,16.18
2023-05-20T21:00:54.982Z,16.41
2023-05-20T21:03:23.926Z,16.34
2023-05-20T21:05:51.862Z,16.47
2023-05-20T21:08:22.072Z,16.62
2023-05-20T21:10:49.794Z,16.24
2023-05-20T21:13:19.105Z,16.37
2023-05-20T21:15:47.349Z,16.36
2023-05-20T21:18:21.614Z,16.39
2023-05-20T21:20:49.470Z,16.31
2023-05-20T21:23:17.176Z,16.35
2023-05-20T21:25:45.072Z,16.27
2023-05-20T21:28:12.967Z,16.23
2023-05-20T21:30:42.135Z,16.18
2023-05-20T21:33:09.902Z,16.22
2023-05-20T21:35:37.946Z,16.22
2023-05-20T21:38:05.808Z,16.24
2023-05-20T21:40:33.781Z,16.08
2023-05-20T21:43:01.572Z,16.12
2023-05-20T21:45:29.270Z,16.30
2023-05-20T21:47:58.366Z,16.12
2023-05-20T21:50:26.112Z,16.45
2023-05-20T21:52:53.872Z,16.41
2023-05-20T21:55:23.631Z,16.43
2023-05-20T21:57:51.781Z,16.15
2023-05-20T22:00:20.602Z,16.27
2023-05-20T22:02:48.572Z,16.24
2023-05-20T22:05:18.271Z,16.06
2023-05-20T22:07:46.363Z,15.99
2023-05-20T22:10:14.576Z,16.01
2023-05-20T22:12:43.200Z,15.96
2023-05-20T22:15:12.037Z,15.78
2023-05-20T22:17:39.801Z,15.91
2023-05-20T22:20:10.476Z,16.00
2023-05-20T22:22:39.865Z,15.84
2023-05-20T22:25:08.443Z,15.86
2023-05-20T22:27:36.226Z,15.96
2023-05-20T22:30:06.127Z,15.94
2023-05-20T22:32:33.994Z,15.96
2023-05-20T22:35:01.738Z,15.72
2023-05-20T22:37:30.014Z,15.91
2023-05-20T22:39:59.109Z,15.82
2023-05-20T22:42:26.848Z,15.86
2023-05-20T22:44:54.596Z,15.81
2023-05-20T22:47:22.404Z,15.74
2023-05-20T22:49:50.798Z,15.57
2023-05-20T22:52:18.836Z,15.74
2023-05-20T22:54:46.683Z,15.65
2023-05-20T22:57:17.043Z,15.73
2023-05-20T22:59:44.708Z,15.80
2023-05-20T23:02:12.505Z,15.78
2023-05-20T23:04:41.386Z,15.69
2023-05-20T23:07:09.165Z,15.55
2023-05-20T23:09:36.879Z,15.52
2023-05-20T23:12:05.115Z,15.49
2023-05-20T23:14:34.239Z,15.20
2023-05-20T23:17:02.061Z,15.34
2023-05-20T23:19:29.935Z,15.08
2023-05-20T23:21:57.919Z,15.27
2023-05-20T23:24:25.655Z,15.27
2023-05-20T23:26:53.929Z,15.14
2023-05-20T23:29:22.215Z,15.27
2023-05-20T23:31:51.293Z,15.30
2023-05-20T23:34:19.102Z,15.34
2023-05-20T23:36:46.831Z,15.37
2023-05-20T23:39:16.246Z,15.38
2023-05-20T23:41:45.888Z,15.41
2023-05-20T23:44:13.587Z,15.46
2023-05-20T23:46:41.784Z,15.42
2023-05-20T23:49:12.282Z,15.26
2023-05-20T23:51:40.003Z,15.19
2023-05-20T23:54:08.066Z,15.22
2023-05-20T23:56:36.188Z,15.40
2023-05-20T23:59:03.912Z,15.12
